Weather at Wolverhampton Halfpenny Green Airport

Public forecast

Using degrees Celsius for public forecast. Weather courtesy of forecast.io.

Closest aviation weather report (METAR) to Wolverhampton Halfpenny Green Airport

Report is more than 6 hours old.

Closest report is DCAE Cosford Air Base, 7.5 nm (14.0 km) NNW.

2022/11/13 08:50 (retrieved 2 years ago)

EGWC 130850Z 13007KT 3500 BR OVC004 12/11 Q1020 RMK YLO2

Closest aviation forecast (TAF) to Wolverhampton Halfpenny Green Airport

Forecast is more than 12 hours old.

Closest forecast is Birmingham International Airport, 19.1 nm (35.3 km) ESE.

2023/02/22 18:00 (retrieved 1 year ago)

TAF EGBB 221657Z 2218/2318 30010KT 9999 SCT030 PROB30 TEMPO 2218/2221 6000 SHRA BKN014 BECMG 2220/2223 02010KT TEMPO 2221/2302 6000 SHRA RA BKN014 PROB30 TEMPO 2302/2306 6000 SHRA RA BKN009